Time;durP1;ratioP1;P1;durP2;ratioP2;P2;SDS_P1;SDS_P2;PMS_P1;PMS_P2;Temp;Humidity;BMP_temperature;BMP_pressure;BME280_temperature;BME280_humidity;BME280_pressure;Samples;Min_cycle;Max_cycle;Signal;HPM_P1;HPM_P2
2023/08/31 00:44:25;;;;;;;;;;;11.60;99.90;;;;;;5111537;22;19938;-85
2023/08/31 00:46:51;;;;;;;;;;;11.60;99.90;;;;;;5102273;28;19927;-85
2023/08/31 00:49:17;;;;;;;;;;;11.60;99.90;;;;;;5102842;28;19928;-86
2023/08/31 00:51:48;;;;;;;;;;;11.60;99.90;;;;;;5079474;22;19930;-86
2023/08/31 00:54:14;;;;;;;;;;;11.60;99.90;;;;;;5050848;28;20010;-86
2023/08/31 00:56:39;;;;;;;;;;;11.60;99.90;;;;;;5049622;28;20229;-86
2023/08/31 00:59:05;;;;;;;;;;;11.60;99.90;;;;;;5052140;28;20434;-87
2023/08/31 01:01:39;;;;;;;;;;;11.60;99.90;;;;;;5052291;28;19933;-85
2023/08/31 01:04:24;;;;;;;;;;;11.60;99.90;;;;;;5056432;28;20477;-86
2023/08/31 01:06:53;;;;;;;;;;;11.60;99.90;;;;;;5033733;28;19932;-86
2023/08/31 01:09:26;;;;;;;;;;;11.60;99.90;;;;;;5048898;28;19928;-85
2023/08/31 01:11:59;;;;;;;;;;;11.60;99.90;;;;;;5050221;28;19936;-86
2023/08/31 01:14:30;;;;;;;;;;;11.50;99.90;;;;;;5050759;28;19924;-85
2023/08/31 01:16:57;;;;;;;;;;;11.50;99.90;;;;;;5051354;28;19925;-87
2023/08/31 01:19:25;;;;;;;;;;;11.50;99.90;;;;;;5045374;28;19929;-86
2023/08/31 01:21:52;;;;;;;;;;;11.50;99.90;;;;;;5050472;28;19924;-86
2023/08/31 01:24:18;;;;;;;;;;;11.50;99.90;;;;;;5045073;28;19939;-86
2023/08/31 01:26:44;;;;;;;;;;;11.50;99.90;;;;;;5051531;28;20303;-85
2023/08/31 01:29:09;;;;;;;;;;;11.50;99.90;;;;;;5046270;28;19925;-86
2023/08/31 01:31:41;;;;;;;;;;;11.40;99.90;;;;;;5045464;28;19925;-86
2023/08/31 01:34:07;;;;;;;;;;;11.40;99.90;;;;;;5050169;28;19924;-86
2023/08/31 01:36:34;;;;;;;;;;;11.40;99.90;;;;;;5051174;28;19979;-86
2023/08/31 01:39:14;;;;;;;;;;;11.40;99.90;;;;;;5050851;28;19990;-86
2023/08/31 01:41:43;;;;;;;;;;;11.30;99.90;;;;;;5050536;28;19991;-86
2023/08/31 01:44:14;;;;;;;;;;;11.40;99.90;;;;;;5048828;28;20015;-86
2023/08/31 01:46:40;;;;;;;;;;;11.30;99.90;;;;;;5050804;28;19925;-85
2023/08/31 01:49:05;;;;;;;;;;;11.40;99.90;;;;;;5048427;28;19933;-85
2023/08/31 01:51:31;;;;;;;;;;;11.30;99.90;;;;;;5016957;28;19931;-86
2023/08/31 01:53:58;;;;;;;;;;;11.30;99.90;;;;;;5048971;28;20019;-86
2023/08/31 01:56:24;;;;;;;;;;;11.30;99.90;;;;;;5047374;28;20296;-85
2023/08/31 01:58:49;;;;;;;;;;;11.30;99.90;;;;;;5047450;28;19982;-85
2023/08/31 02:01:15;;;;;;;;;;;11.30;99.90;;;;;;5048018;28;20332;-86
2023/08/31 02:03:40;;;;;;;;;;;11.30;99.90;;;;;;5051542;28;19924;-86
2023/08/31 02:06:06;;;;;;;;;;;11.30;99.90;;;;;;5051631;28;20280;-86
2023/08/31 02:08:32;;;;;;;;;;;11.20;99.90;;;;;;5044205;28;19924;-85
2023/08/31 02:10:57;;;;;;;;;;;11.20;99.90;;;;;;5052860;28;19933;-85
2023/08/31 02:13:23;;;;;;;;;;;11.20;99.90;;;;;;5054204;28;19929;-85
2023/08/31 02:15:52;;;;;;;;;;;11.10;99.90;;;;;;5052704;28;19925;-84
2023/08/31 02:18:18;;;;;;;;;;;11.10;99.90;;;;;;5050309;28;20410;-86
2023/08/31 02:20:43;;;;;;;;;;;11.10;99.90;;;;;;5053887;28;20022;-86
2023/08/31 02:23:09;;;;;;;;;;;11.00;99.90;;;;;;5044199;28;20288;-85
2023/08/31 02:25:35;;;;;;;;;;;11.00;99.90;;;;;;5053804;28;19925;-86
2023/08/31 02:28:00;;;;;;;;;;;11.00;99.90;;;;;;5037107;28;20284;-87
2023/08/31 02:30:26;;;;;;;;;;;11.00;99.90;;;;;;5051898;28;19925;-85
2023/08/31 02:32:52;;;;;;;;;;;10.90;99.90;;;;;;5053566;28;19936;-87
2023/08/31 02:35:17;;;;;;;;;;;10.90;99.90;;;;;;5044980;28;20318;-86
2023/08/31 02:37:43;;;;;;;;;;;10.90;99.90;;;;;;5054220;28;19925;-87
2023/08/31 02:40:09;;;;;;;;;;;10.80;99.90;;;;;;5052793;28;19944;-86
2023/08/31 02:42:34;;;;;;;;;;;10.90;99.90;;;;;;5052653;28;19924;-85
2023/08/31 02:45:00;;;;;;;;;;;10.80;99.90;;;;;;5054278;28;19924;-85
2023/08/31 02:47:25;;;;;;;;;;;10.80;99.90;;;;;;5053230;28;19932;-87
2023/08/31 02:49:51;;;;;;;;;;;10.80;99.90;;;;;;5051036;28;19994;-85
2023/08/31 02:52:17;;;;;;;;;;;10.80;99.90;;;;;;5054967;28;20001;-86
2023/08/31 02:54:42;;;;;;;;;;;10.70;99.90;;;;;;5026103;28;19983;-83
2023/08/31 02:57:08;;;;;;;;;;;10.70;99.90;;;;;;5030034;28;19971;-84
2023/08/31 02:59:36;;;;;;;;;;;10.70;99.90;;;;;;5017038;28;19925;-86
2023/08/31 03:02:05;;;;;;;;;;;10.70;99.90;;;;;;5018236;28;19924;-87
2023/08/31 03:04:30;;;;;;;;;;;10.70;99.90;;;;;;5014965;28;19929;-86
2023/08/31 03:06:56;;;;;;;;;;;10.60;99.90;;;;;;5041692;28;20228;-84
2023/08/31 03:09:22;;;;;;;;;;;10.60;99.90;;;;;;5030000;28;19929;-87
2023/08/31 03:11:47;;;;;;;;;;;10.60;99.90;;;;;;5012055;28;20020;-84
2023/08/31 03:14:13;;;;;;;;;;;10.60;99.90;;;;;;5024278;28;19925;-87
2023/08/31 03:16:38;;;;;;;;;;;10.60;99.90;;;;;;5026312;28;19928;-85
2023/08/31 03:19:04;;;;;;;;;;;10.70;99.90;;;;;;5014230;28;19936;-86
2023/08/31 03:21:30;;;;;;;;;;;10.70;99.90;;;;;;5036065;28;19932;-85
2023/08/31 03:23:55;;;;;;;;;;;10.60;99.90;;;;;;5015046;28;20020;-84
2023/08/31 03:26:21;;;;;;;;;;;10.60;99.90;;;;;;5023092;28;19940;-85
2023/08/31 03:28:46;;;;;;;;;;;10.60;99.90;;;;;;5017215;28;19932;-87
2023/08/31 03:31:12;;;;;;;;;;;10.60;99.90;;;;;;5026143;28;20364;-86
2023/08/31 03:33:38;;;;;;;;;;;10.60;99.90;;;;;;5025841;28;20370;-84
2023/08/31 03:36:04;;;;;;;;;;;10.60;99.90;;;;;;5016936;28;19935;-86
2023/08/31 03:38:30;;;;;;;;;;;10.70;99.90;;;;;;5033271;28;19925;-85
2023/08/31 03:40:57;;;;;;;;;;;10.60;99.90;;;;;;5006157;28;20015;-87
2023/08/31 03:43:22;;;;;;;;;;;10.60;99.90;;;;;;5018228;28;20360;-86
2023/08/31 03:45:49;;;;;;;;;;;10.60;99.90;;;;;;5017320;28;20020;-87
2023/08/31 03:48:14;;;;;;;;;;;10.60;99.90;;;;;;5034843;28;19925;-86
2023/08/31 03:50:40;;;;;;;;;;;10.60;99.90;;;;;;5015095;28;19947;-86
2023/08/31 03:53:05;;;;;;;;;;;10.60;99.90;;;;;;5032496;28;19933;-85
2023/08/31 03:55:31;;;;;;;;;;;10.60;99.90;;;;;;5048811;28;19936;-85
2023/08/31 03:57:58;;;;;;;;;;;10.60;99.90;;;;;;5048293;28;19931;-87
2023/08/31 04:00:23;;;;;;;;;;;10.60;99.90;;;;;;5051942;28;19925;-86
2023/08/31 04:02:49;;;;;;;;;;;10.60;99.90;;;;;;5050570;28;19982;-85
2023/08/31 04:05:15;;;;;;;;;;;10.60;99.90;;;;;;5046753;28;19932;-86
2023/08/31 04:07:41;;;;;;;;;;;10.60;99.90;;;;;;5049220;28;19935;-85
2023/08/31 04:10:07;;;;;;;;;;;10.60;99.90;;;;;;5052360;28;20023;-85
2023/08/31 04:12:34;;;;;;;;;;;10.60;99.90;;;;;;5014073;28;19929;-85
2023/08/31 04:15:00;;;;;;;;;;;10.60;99.90;;;;;;5045382;28;19925;-87
2023/08/31 04:17:25;;;;;;;;;;;10.60;99.90;;;;;;5048418;28;19929;-86
2023/08/31 04:19:51;;;;;;;;;;;10.60;99.90;;;;;;5044419;28;19967;-85
2023/08/31 04:22:17;;;;;;;;;;;10.60;99.90;;;;;;5051599;28;19928;-86
2023/08/31 04:24:42;;;;;;;;;;;10.60;99.90;;;;;;5053642;28;20027;-85
2023/08/31 04:27:08;;;;;;;;;;;10.70;99.90;;;;;;5053309;28;19929;-84
2023/08/31 04:29:33;;;;;;;;;;;10.70;99.90;;;;;;5054889;28;19924;-85
2023/08/31 04:31:59;;;;;;;;;;;10.70;99.90;;;;;;5051228;28;20018;-87
2023/08/31 04:34:25;;;;;;;;;;;10.70;99.90;;;;;;5051276;28;19925;-86
2023/08/31 04:36:51;;;;;;;;;;;10.70;99.90;;;;;;5050914;28;19979;-85
2023/08/31 04:39:16;;;;;;;;;;;10.70;99.90;;;;;;5052627;28;19925;-86
2023/08/31 04:41:42;;;;;;;;;;;10.80;99.90;;;;;;5052277;28;19929;-87
2023/08/31 04:44:07;;;;;;;;;;;10.90;99.90;;;;;;5052153;28;20015;-87
2023/08/31 04:46:33;;;;;;;;;;;11.00;99.90;;;;;;5049562;28;19925;-86
2023/08/31 04:48:59;;;;;;;;;;;11.00;99.90;;;;;;5050763;28;19978;-86
2023/08/31 04:51:28;;;;;;;;;;;11.10;99.90;;;;;;5051597;28;19925;-86
2023/08/31 04:53:53;;;;;;;;;;;11.20;99.90;;;;;;5052454;28;19924;-85
2023/08/31 04:56:19;;;;;;;;;;;11.20;99.90;;;;;;5050791;28;19975;-86
2023/08/31 04:58:45;;;;;;;;;;;11.30;99.90;;;;;;5050949;28;19932;-87
2023/08/31 05:01:10;;;;;;;;;;;11.30;99.90;;;;;;5052401;28;19931;-85
2023/08/31 05:03:36;;;;;;;;;;;11.30;99.90;;;;;;5051767;28;19925;-86
2023/08/31 05:06:04;;;;;;;;;;;11.40;99.90;;;;;;5042843;28;19928;-86
2023/08/31 05:08:30;;;;;;;;;;;11.40;99.90;;;;;;5051428;28;19947;-86
2023/08/31 05:10:55;;;;;;;;;;;11.40;99.90;;;;;;5050641;28;19929;-86
2023/08/31 05:13:21;;;;;;;;;;;11.40;99.90;;;;;;5051371;28;19991;-85
2023/08/31 05:15:47;;;;;;;;;;;11.40;99.90;;;;;;5051852;28;19985;-86
2023/08/31 05:18:12;;;;;;;;;;;11.40;99.90;;;;;;5051686;28;19925;-85
2023/08/31 05:20:38;;;;;;;;;;;11.40;99.90;;;;;;5051678;28;19976;-85
2023/08/31 05:23:03;;;;;;;;;;;11.50;99.90;;;;;;5043401;28;19925;-85
2023/08/31 05:25:29;;;;;;;;;;;11.40;99.90;;;;;;5051815;28;20325;-85
2023/08/31 05:27:54;;;;;;;;;;;11.50;99.90;;;;;;5051385;28;19925;-85
2023/08/31 05:30:20;;;;;;;;;;;11.50;99.90;;;;;;5034926;28;19929;-86
2023/08/31 05:32:46;;;;;;;;;;;11.50;99.90;;;;;;5033814;28;19936;-85
2023/08/31 05:35:14;;;;;;;;;;;11.60;99.90;;;;;;5051780;28;19932;-87
2023/08/31 05:37:40;;;;;;;;;;;11.60;99.90;;;;;;5048286;28;19925;-85
2023/08/31 05:40:06;;;;;;;;;;;11.60;99.90;;;;;;5050877;28;19925;-86
2023/08/31 05:42:32;;;;;;;;;;;11.60;99.90;;;;;;5039926;28;19925;-86
2023/08/31 05:44:58;;;;;;;;;;;11.70;99.90;;;;;;5053244;28;19928;-86
2023/08/31 05:47:23;;;;;;;;;;;11.70;99.90;;;;;;5054884;28;22128;-86
2023/08/31 05:49:49;;;;;;;;;;;11.90;99.90;;;;;;5049048;28;19925;-86
2023/08/31 05:52:14;;;;;;;;;;;11.90;99.90;;;;;;5063946;28;19925;-87
2023/08/31 05:54:40;;;;;;;;;;;12.00;99.90;;;;;;5051460;28;20386;-85
2023/08/31 05:57:06;;;;;;;;;;;12.00;99.90;;;;;;5052728;28;19924;-85
2023/08/31 05:59:31;;;;;;;;;;;12.10;99.90;;;;;;5051609;28;20284;-84
2023/08/31 06:01:57;;;;;;;;;;;12.30;99.90;;;;;;5048072;28;19963;-86
2023/08/31 06:04:22;;;;;;;;;;;12.40;99.90;;;;;;5052978;28;19924;-85
2023/08/31 06:06:48;;;;;;;;;;;12.50;99.90;;;;;;5055592;28;20295;-87
2023/08/31 06:09:14;;;;;;;;;;;12.50;99.90;;;;;;5045516;28;19932;-85
2023/08/31 06:11:40;;;;;;;;;;;12.60;99.90;;;;;;5054327;28;19932;-85
2023/08/31 06:14:08;;;;;;;;;;;12.60;99.90;;;;;;5055225;28;20283;-89
2023/08/31 06:16:33;;;;;;;;;;;12.70;99.90;;;;;;5054923;28;20370;-87
2023/08/31 06:18:59;;;;;;;;;;;12.70;99.90;;;;;;5037704;28;19976;-85
2023/08/31 06:21:24;;;;;;;;;;;12.80;99.90;;;;;;5051289;28;20291;-85
2023/08/31 06:23:50;;;;;;;;;;;12.90;99.90;;;;;;5048787;28;19978;-85
2023/08/31 06:26:15;;;;;;;;;;;13.00;99.90;;;;;;5050253;28;19968;-85
2023/08/31 06:28:41;;;;;;;;;;;13.20;99.90;;;;;;5049557;28;19924;-89
2023/08/31 06:31:06;;;;;;;;;;;13.30;99.90;;;;;;5052323;28;19979;-85
2023/08/31 06:33:32;;;;;;;;;;;13.30;99.90;;;;;;5054594;28;19932;-85
2023/08/31 06:35:57;;;;;;;;;;;13.30;99.90;;;;;;5030072;28;20036;-87
2023/08/31 06:38:23;;;;;;;;;;;13.30;99.90;;;;;;5034415;28;20382;-85
2023/08/31 06:40:49;;;;;;;;;;;13.30;99.90;;;;;;5047953;28;19936;-86
2023/08/31 06:43:14;;;;;;;;;;;13.30;99.90;;;;;;5029807;28;20257;-86
2023/08/31 06:45:40;;;;;;;;;;;13.30;99.90;;;;;;5049095;28;19931;-89
2023/08/31 06:48:05;;;;;;;;;;;13.30;99.90;;;;;;5050420;28;20002;-85
2023/08/31 06:50:33;;;;;;;;;;;13.30;99.90;;;;;;5045524;28;19929;-88
2023/08/31 06:52:58;;;;;;;;;;;13.30;99.90;;;;;;5030158;28;19948;-87
2023/08/31 06:55:24;;;;;;;;;;;13.30;99.90;;;;;;5044579;28;19931;-86
2023/08/31 06:57:49;;;;;;;;;;;13.30;99.90;;;;;;5050802;28;19931;-86
2023/08/31 07:00:15;;;;;;;;;;;13.40;99.90;;;;;;5050913;28;19960;-86
2023/08/31 07:02:41;;;;;;;;;;;13.40;99.90;;;;;;5048823;28;20010;-86
2023/08/31 07:05:07;;;;;;;;;;;13.50;99.90;;;;;;5044220;28;19925;-85
2023/08/31 07:07:33;;;;;;;;;;;13.60;99.90;;;;;;5030509;28;20051;-87
2023/08/31 07:09:59;;;;;;;;;;;13.70;99.90;;;;;;5043090;28;19932;-85
2023/08/31 07:12:25;;;;;;;;;;;13.90;99.90;;;;;;5034701;28;20330;-86
2023/08/31 07:14:50;;;;;;;;;;;14.20;99.90;;;;;;5050849;28;19925;-85
2023/08/31 07:17:19;;;;;;;;;;;14.50;99.90;;;;;;5052906;28;19928;-84
2023/08/31 07:19:45;;;;;;;;;;;14.80;99.90;;;;;;5054704;28;20086;-87
2023/08/31 07:22:10;;;;;;;;;;;15.10;99.90;;;;;;5049990;28;20015;-86
2023/08/31 07:24:36;;;;;;;;;;;15.30;99.90;;;;;;5047703;28;19925;-86
2023/08/31 07:27:03;;;;;;;;;;;15.70;99.90;;;;;;5045619;28;20279;-86
2023/08/31 07:29:28;;;;;;;;;;;16.30;99.90;;;;;;5048745;28;19987;-88
2023/08/31 07:31:54;;;;;;;;;;;16.60;99.90;;;;;;5053388;28;19994;-88
2023/08/31 07:34:20;;;;;;;;;;;16.30;99.90;;;;;;5050063;28;20035;-88
2023/08/31 07:36:46;;;;;;;;;;;16.00;99.90;;;;;;5034886;28;20008;-88
2023/08/31 07:39:12;;;;;;;;;;;15.70;99.90;;;;;;5053049;28;19979;-89
2023/08/31 07:41:37;;;;;;;;;;;15.50;99.90;;;;;;5052443;28;20385;-87
2023/08/31 07:44:03;;;;;;;;;;;15.90;99.90;;;;;;5049961;28;19928;-88
2023/08/31 07:46:29;;;;;;;;;;;16.60;99.90;;;;;;5053241;28;20486;-86
2023/08/31 07:48:55;;;;;;;;;;;17.30;99.90;;;;;;5055710;28;20391;-87
2023/08/31 07:51:23;;;;;;;;;;;17.60;99.90;;;;;;5054322;28;20375;-88
2023/08/31 07:53:49;;;;;;;;;;;18.00;99.90;;;;;;5052292;28;19929;-86
2023/08/31 07:56:14;;;;;;;;;;;18.50;99.90;;;;;;5051524;28;20007;-88
2023/08/31 07:58:40;;;;;;;;;;;18.80;99.90;;;;;;5052526;28;19924;-92
2023/08/31 08:01:05;;;;;;;;;;;19.20;99.90;;;;;;5051751;28;19924;-88
2023/08/31 08:03:31;;;;;;;;;;;19.50;99.90;;;;;;5029331;28;19932;-86
2023/08/31 08:05:56;;;;;;;;;;;19.90;99.90;;;;;;5040750;28;20340;-88
2023/08/31 08:08:22;;;;;;;;;;;20.00;99.90;;;;;;5045715;28;19929;-89
2023/08/31 08:10:51;;;;;;;;;;;19.70;99.90;;;;;;5045404;28;19929;-88
2023/08/31 08:13:17;;;;;;;;;;;19.40;99.90;;;;;;5051549;28;19936;-87
2023/08/31 08:15:42;;;;;;;;;;;19.20;99.90;;;;;;5049422;28;20372;-88
2023/08/31 08:18:08;;;;;;;;;;;19.30;99.90;;;;;;5050301;28;19935;-89
2023/08/31 08:20:33;;;;;;;;;;;19.60;99.90;;;;;;5052847;28;20004;-88
2023/08/31 08:22:59;;;;;;;;;;;20.10;99.90;;;;;;5041056;28;19929;-88
2023/08/31 08:25:25;;;;;;;;;;;20.10;99.90;;;;;;5044188;28;20335;-88
2023/08/31 08:27:51;;;;;;;;;;;19.70;99.90;;;;;;5044803;28;19936;-89
2023/08/31 08:30:16;;;;;;;;;;;19.30;99.90;;;;;;5047424;28;20000;-89
2023/08/31 08:32:42;;;;;;;;;;;19.40;99.90;;;;;;5039604;28;19925;-87
2023/08/31 08:35:08;;;;;;;;;;;20.00;99.90;;;;;;5045116;28;19928;-88
2023/08/31 08:37:33;;;;;;;;;;;20.40;99.90;;;;;;5041180;28;19928;-87
2023/08/31 08:39:59;;;;;;;;;;;20.80;99.90;;;;;;5035684;28;19929;-85
2023/08/31 08:42:25;;;;;;;;;;;21.10;99.90;;;;;;5041395;28;19928;-86
2023/08/31 08:44:51;;;;;;;;;;;20.90;99.90;;;;;;5041309;28;20004;-86
2023/08/31 08:47:17;;;;;;;;;;;20.40;99.90;;;;;;5045778;28;20383;-86
2023/08/31 08:49:43;;;;;;;;;;;20.00;99.90;;;;;;5046161;28;20414;-85
2023/08/31 08:52:09;;;;;;;;;;;19.50;99.90;;;;;;5046084;28;19928;-83
2023/08/31 08:54:35;;;;;;;;;;;19.10;99.90;;;;;;5044821;28;19931;-85
2023/08/31 08:57:00;;;;;;;;;;;18.80;99.90;;;;;;5044875;28;19932;-86
2023/08/31 08:59:27;;;;;;;;;;;18.50;99.90;;;;;;5043837;28;19925;-87
2023/08/31 09:01:53;;;;;;;;;;;18.10;99.90;;;;;;5027753;28;19936;-86
2023/08/31 09:04:19;;;;;;;;;;;17.80;99.90;;;;;;5044941;28;19936;-86
2023/08/31 09:06:44;;;;;;;;;;;17.50;99.90;;;;;;5045702;28;19925;-86
2023/08/31 09:09:10;;;;;;;;;;;17.20;99.90;;;;;;5027418;28;20431;-86
2023/08/31 09:11:35;;;;;;;;;;;17.00;99.90;;;;;;5026865;28;20356;-84
2023/08/31 09:14:13;;;;;;;;;;;17.00;99.90;;;;;;5048069;28;19924;-87
2023/08/31 09:16:39;;;;;;;;;;;17.60;99.90;;;;;;5043202;28;19928;-86
2023/08/31 09:19:17;;;;;;;;;;;18.30;99.90;;;;;;5054374;28;19925;-86
2023/08/31 09:21:43;;;;;;;;;;;18.70;99.90;;;;;;5056515;28;19925;-86
2023/08/31 09:24:10;;;;;;;;;;;19.20;99.90;;;;;;5055283;28;19925;-86
2023/08/31 09:26:39;;;;;;;;;;;19.50;99.90;;;;;;5054366;28;19978;-87
2023/08/31 09:29:05;;;;;;;;;;;19.90;99.90;;;;;;5055645;28;19931;-89
2023/08/31 09:31:31;;;;;;;;;;;20.30;99.90;;;;;;5035502;28;19960;-86
2023/08/31 09:33:56;;;;;;;;;;;20.70;99.90;;;;;;5053815;28;20320;-88
2023/08/31 09:36:23;;;;;;;;;;;20.90;99.90;;;;;;5048108;28;19924;-87
2023/08/31 09:38:48;;;;;;;;;;;21.00;99.90;;;;;;5055164;28;20387;-87
2023/08/31 09:41:15;;;;;;;;;;;21.00;99.90;;;;;;5037534;28;19925;-88
2023/08/31 09:43:40;;;;;;;;;;;20.80;99.90;;;;;;5055938;28;19929;-88
2023/08/31 09:46:06;;;;;;;;;;;20.90;99.90;;;;;;5052427;28;19986;-88
2023/08/31 09:48:32;;;;;;;;;;;21.30;99.90;;;;;;5053330;28;19976;-85
2023/08/31 09:50:58;;;;;;;;;;;21.30;99.90;;;;;;5053700;28;20350;-86
2023/08/31 09:53:24;;;;;;;;;;;21.10;99.90;;;;;;5055685;28;19925;-86
2023/08/31 09:55:51;;;;;;;;;;;21.00;99.90;;;;;;5054205;28;19929;-86
2023/08/31 09:58:20;;;;;;;;;;;20.90;99.90;;;;;;5053296;28;20387;-86
2023/08/31 10:00:46;;;;;;;;;;;20.70;99.90;;;;;;5055737;28;19924;-87
2023/08/31 10:03:15;;;;;;;;;;;20.50;99.90;;;;;;5051340;28;19925;-83
2023/08/31 10:05:45;;;;;;;;;;;20.50;99.90;;;;;;5052950;28;19932;-84
2023/08/31 10:08:14;;;;;;;;;;;20.30;99.90;;;;;;5052224;28;20380;-85
2023/08/31 10:10:40;;;;;;;;;;;19.70;99.90;;;;;;5052953;28;20020;-84
2023/08/31 10:13:05;;;;;;;;;;;19.70;99.90;;;;;;5053444;28;20015;-84
2023/08/31 10:15:33;;;;;;;;;;;19.70;99.90;;;;;;5050241;28;19929;-84
2023/08/31 10:18:02;;;;;;;;;;;19.90;99.90;;;;;;5053699;28;19929;-85
2023/08/31 10:20:31;;;;;;;;;;;19.90;99.90;;;;;;5054535;28;19928;-84
2023/08/31 10:23:03;;;;;;;;;;;19.60;99.90;;;;;;5054177;28;19964;-85
2023/08/31 10:25:43;;;;;;;;;;;19.20;99.90;;;;;;5054636;28;19937;-83
2023/08/31 10:28:18;;;;;;;;;;;18.80;99.90;;;;;;5042320;28;19929;-84
2023/08/31 10:30:59;;;;;;;;;;;18.50;99.90;;;;;;5053398;28;19925;-86
2023/08/31 10:33:25;;;;;;;;;;;18.40;99.90;;;;;;5054088;28;19925;-86
2023/08/31 10:36:00;;;;;;;;;;;18.30;99.90;;;;;;5050246;28;19932;-89
2023/08/31 10:38:32;;;;;;;;;;;18.20;99.90;;;;;;5052555;28;19928;-86
2023/08/31 10:41:01;;;;;;;;;;;18.00;99.90;;;;;;5052881;28;19955;-86
2023/08/31 10:43:26;;;;;;;;;;;17.80;99.90;;;;;;5054878;28;19935;-87
2023/08/31 10:45:52;;;;;;;;;;;17.70;99.90;;;;;;5053145;28;19929;-86
2023/08/31 10:48:17;;;;;;;;;;;17.70;99.90;;;;;;5053847;28;20066;-87
2023/08/31 10:50:44;;;;;;;;;;;17.50;99.90;;;;;;5046512;28;20007;-87
2023/08/31 10:53:11;;;;;;;;;;;17.40;99.90;;;;;;5052309;28;20364;-87
2023/08/31 10:55:53;;;;;;;;;;;17.20;99.90;;;;;;5053673;28;19925;-87
2023/08/31 10:58:18;;;;;;;;;;;17.10;99.90;;;;;;5053520;28;19935;-87
2023/08/31 11:00:51;;;;;;;;;;;16.90;99.90;;;;;;5053977;28;19925;-87
2023/08/31 11:03:16;;;;;;;;;;;16.80;99.90;;;;;;5054573;28;20012;-86
2023/08/31 11:05:52;;;;;;;;;;;16.70;99.90;;;;;;5036736;28;20435;-87
2023/08/31 11:08:24;;;;;;;;;;;16.60;99.90;;;;;;5054743;28;19929;-87
2023/08/31 11:10:50;;;;;;;;;;;16.50;99.90;;;;;;5052480;28;19931;-87
2023/08/31 11:13:17;;;;;;;;;;;16.50;99.90;;;;;;5054763;28;20007;-87
2023/08/31 11:15:46;;;;;;;;;;;16.50;99.90;;;;;;5053173;28;19990;-86
2023/08/31 11:18:12;;;;;;;;;;;16.50;99.90;;;;;;5055956;28;20388;-87
2023/08/31 11:20:37;;;;;;;;;;;16.40;99.90;;;;;;5057463;28;19946;-86
2023/08/31 11:23:03;;;;;;;;;;;16.50;99.90;;;;;;5056589;28;19931;-86
2023/08/31 11:25:32;;;;;;;;;;;16.40;99.90;;;;;;5054947;28;19971;-87
2023/08/31 11:27:59;;;;;;;;;;;16.40;99.90;;;;;;5040601;28;19925;-86
2023/08/31 11:30:26;;;;;;;;;;;16.30;99.90;;;;;;5054122;28;19924;-86
2023/08/31 11:32:52;;;;;;;;;;;16.20;99.90;;;;;;5052760;28;20379;-87
2023/08/31 11:35:18;;;;;;;;;;;16.10;99.90;;;;;;5053058;28;19933;-86
2023/08/31 11:37:45;;;;;;;;;;;15.90;99.90;;;;;;5052811;28;19933;-87
2023/08/31 11:40:11;;;;;;;;;;;15.80;99.90;;;;;;5036527;28;19931;-87
2023/08/31 11:42:36;;;;;;;;;;;15.60;99.90;;;;;;5052843;28;19925;-87
2023/08/31 11:45:04;;;;;;;;;;;15.50;99.90;;;;;;5053030;28;19924;-86
2023/08/31 11:47:31;;;;;;;;;;;15.40;99.90;;;;;;5053381;28;20517;-87
2023/08/31 11:49:57;;;;;;;;;;;15.50;99.90;;;;;;5052825;28;19925;-87
2023/08/31 11:52:23;;;;;;;;;;;15.70;99.90;;;;;;5052559;28;19931;-87
2023/08/31 11:54:51;;;;;;;;;;;15.90;99.90;;;;;;5042851;28;19971;-86
2023/08/31 11:57:17;;;;;;;;;;;16.20;99.90;;;;;;5035865;28;19931;-87
2023/08/31 11:59:43;;;;;;;;;;;16.50;99.90;;;;;;5035573;28;20011;-87
2023/08/31 12:02:08;;;;;;;;;;;16.80;99.90;;;;;;5035824;28;19929;-87
2023/08/31 12:04:46;;;;;;;;;;;17.20;99.90;;;;;;5052752;28;20310;-87
2023/08/31 12:07:15;;;;;;;;;;;17.50;99.90;;;;;;5035558;28;19935;-86
2023/08/31 12:09:41;;;;;;;;;;;17.60;99.90;;;;;;5035822;28;20318;-86
2023/08/31 12:12:07;;;;;;;;;;;17.50;99.90;;;;;;5053276;28;19978;-86
2023/08/31 12:14:36;;;;;;;;;;;17.30;99.90;;;;;;5051505;28;19928;-87
2023/08/31 12:17:06;;;;;;;;;;;17.20;99.90;;;;;;5035510;28;19978;-86
2023/08/31 12:19:32;;;;;;;;;;;17.10;99.90;;;;;;5052865;28;20383;-86
2023/08/31 12:21:57;;;;;;;;;;;16.90;99.90;;;;;;5019155;28;19932;-86
2023/08/31 12:24:23;;;;;;;;;;;16.80;99.90;;;;;;5018371;28;20345;-87
2023/08/31 12:26:49;;;;;;;;;;;16.60;99.90;;;;;;5035335;28;19936;-86
2023/08/31 12:29:15;;;;;;;;;;;16.60;99.90;;;;;;5052827;28;19929;-87
2023/08/31 12:31:41;;;;;;;;;;;16.40;99.90;;;;;;5035461;28;20019;-86
2023/08/31 12:34:06;;;;;;;;;;;16.40;99.90;;;;;;5034756;28;19928;-87
2023/08/31 12:36:32;;;;;;;;;;;16.30;99.90;;;;;;5034608;28;19951;-85
2023/08/31 12:39:01;;;;;;;;;;;16.30;99.90;;;;;;5052940;28;19929;-86
2023/08/31 12:41:29;;;;;;;;;;;16.40;99.90;;;;;;5052542;28;19924;-87
2023/08/31 12:43:55;;;;;;;;;;;16.50;99.90;;;;;;5034704;28;20277;-86
2023/08/31 12:46:20;;;;;;;;;;;16.60;99.90;;;;;;5034140;28;19935;-86
2023/08/31 12:48:48;;;;;;;;;;;16.90;99.90;;;;;;5052701;28;20016;-86
2023/08/31 12:51:13;;;;;;;;;;;17.30;99.90;;;;;;5034953;28;20371;-86
2023/08/31 12:53:39;;;;;;;;;;;17.70;99.90;;;;;;5046700;28;19931;-85
2023/08/31 12:56:05;;;;;;;;;;;18.20;99.90;;;;;;5050816;28;20395;-85
2023/08/31 12:58:31;;;;;;;;;;;18.60;99.90;;;;;;5050943;28;19925;-85
2023/08/31 13:00:58;;;;;;;;;;;19.10;99.90;;;;;;5044463;28;19936;-85
2023/08/31 13:03:23;;;;;;;;;;;19.30;99.90;;;;;;5041656;28;19929;-87
2023/08/31 13:05:50;;;;;;;;;;;19.10;99.90;;;;;;5051488;28;20375;-86
2023/08/31 13:08:16;;;;;;;;;;;18.60;99.90;;;;;;5051064;28;20425;-86
2023/08/31 13:10:41;;;;;;;;;;;18.10;99.90;;;;;;5033721;28;19925;-86
2023/08/31 13:13:07;;;;;;;;;;;17.60;99.90;;;;;;5052333;28;19932;-86
2023/08/31 13:15:33;;;;;;;;;;;17.10;99.90;;;;;;5051848;28;20280;-86
2023/08/31 13:17:59;;;;;;;;;;;16.80;99.90;;;;;;5052581;28;19998;-86
2023/08/31 13:20:24;;;;;;;;;;;16.60;99.90;;;;;;5042279;28;20283;-86
2023/08/31 13:22:51;;;;;;;;;;;16.40;99.90;;;;;;5038658;28;19924;-86
2023/08/31 13:25:16;;;;;;;;;;;16.30;99.90;;;;;;5048521;28;20280;-86
2023/08/31 13:27:42;;;;;;;;;;;16.20;99.90;;;;;;5051797;28;19925;-86
2023/08/31 13:30:09;;;;;;;;;;;16.20;99.90;;;;;;5049944;28;19929;-85
2023/08/31 13:32:34;;;;;;;;;;;16.30;99.90;;;;;;5048662;28;19929;-88
2023/08/31 13:35:00;;;;;;;;;;;16.60;99.90;;;;;;5051523;28;19939;-87
2023/08/31 13:37:26;;;;;;;;;;;16.80;99.90;;;;;;5052119;28;20396;-88
2023/08/31 13:39:52;;;;;;;;;;;16.90;99.90;;;;;;5051150;28;19978;-87
2023/08/31 13:42:17;;;;;;;;;;;16.90;99.90;;;;;;5050547;28;19929;-87
2023/08/31 13:44:43;;;;;;;;;;;16.90;99.90;;;;;;5051748;28;19928;-87
2023/08/31 13:47:09;;;;;;;;;;;16.90;99.90;;;;;;5052171;28;19972;-87
2023/08/31 13:49:34;;;;;;;;;;;17.00;99.90;;;;;;5052408;28;19947;-87
2023/08/31 13:52:00;;;;;;;;;;;17.20;99.90;;;;;;5049665;28;19925;-87
2023/08/31 13:54:26;;;;;;;;;;;17.50;99.90;;;;;;5050441;28;20411;-87
2023/08/31 13:56:51;;;;;;;;;;;17.80;99.90;;;;;;5050995;28;19978;-87
2023/08/31 13:59:17;;;;;;;;;;;18.10;99.90;;;;;;5051051;28;19925;-86
2023/08/31 14:01:43;;;;;;;;;;;18.30;99.90;;;;;;5033973;28;20333;-85
2023/08/31 14:04:08;;;;;;;;;;;18.30;99.90;;;;;;5050958;28;19936;-87
2023/08/31 14:06:34;;;;;;;;;;;18.30;99.90;;;;;;5054044;28;19924;-86
2023/08/31 14:08:59;;;;;;;;;;;18.30;99.90;;;;;;5053717;28;19978;-85
2023/08/31 14:11:25;;;;;;;;;;;18.50;99.90;;;;;;5054720;28;19935;-85
2023/08/31 14:13:52;;;;;;;;;;;18.90;99.90;;;;;;5052860;28;19925;-85
2023/08/31 14:16:18;;;;;;;;;;;19.10;99.90;;;;;;5053660;28;20322;-85
2023/08/31 14:18:44;;;;;;;;;;;19.40;99.90;;;;;;5054371;28;19979;-84
2023/08/31 14:21:14;;;;;;;;;;;19.50;99.90;;;;;;5050724;28;19929;-86
2023/08/31 14:23:40;;;;;;;;;;;19.50;99.90;;;;;;5047050;28;19924;-85
2023/08/31 14:26:06;;;;;;;;;;;19.30;99.90;;;;;;5054311;28;19932;-85
2023/08/31 14:28:31;;;;;;;;;;;19.20;99.90;;;;;;5054608;28;19925;-85
2023/08/31 14:30:57;;;;;;;;;;;19.20;99.90;;;;;;5054429;28;19979;-85
2023/08/31 14:33:22;;;;;;;;;;;19.30;99.90;;;;;;5036081;28;20016;-85
2023/08/31 14:35:51;;;;;;;;;;;19.40;99.90;;;;;;5055020;28;20002;-85
2023/08/31 14:38:20;;;;;;;;;;;19.40;99.90;;;;;;5052299;28;19932;-85
2023/08/31 14:40:45;;;;;;;;;;;19.50;99.90;;;;;;5055280;28;20020;-85
2023/08/31 14:43:11;;;;;;;;;;;19.60;99.90;;;;;;5053272;28;20007;-85
2023/08/31 14:45:38;;;;;;;;;;;19.60;99.90;;;;;;5053054;28;19929;-85
2023/08/31 14:48:07;;;;;;;;;;;19.70;99.90;;;;;;5045438;28;19924;-85
2023/08/31 14:50:32;;;;;;;;;;;19.80;99.90;;;;;;5059183;28;19928;-84
2023/08/31 14:52:58;;;;;;;;;;;19.90;99.90;;;;;;5057509;28;20061;-86
2023/08/31 14:55:25;;;;;;;;;;;20.10;99.90;;;;;;5056019;28;19987;-84